Tiempo atmosférico en la estación meteorológica de Fuerteventura Aeropuerto, Las Palmas (25 m.)



Fecha
DESCASC
Temp. máxima en grados centígrados (hora)
DESCASC
Temp. mínima en grados centígrados (hora)
DESCASC
Temp. media en grados centígrados
DESCASC
Racha de viento máxima en m/sg (hora)
DESCASC
Velocidad máxima media en intervalos de 10 minutos(hora)
DESCASC
Precipitaciones diarias en mm
DESCASC
Precipitaciones de 00:00 a 06:00 en mm
DESCASC
Precipitaciones de 06:00 a 12:00 en mm
DESCASC
Precipitaciones de 12:00 a 18:00 en mm
DESCASC
Precipitaciones de 18:00 a 24:00 en mm
DESCASC
22-01-2020 19.4 (11:40) 10.6 (05:00) 15 10.83 (16:50) 6.39 (15:50) 0.1 0 0 0 0.1
21-01-2020 19.3 (14:10) 12.7 (23:59) 16 12.5 (15:30) 8.06 (12:00) 0 0 0 0 0
20-01-2020 20.4 (13:30) 16 (22:20) 18.2 15.28 (12:50) 11.39 (12:50) 0 0 0 0 0
19-01-2020 21 (14:10) 15 (00:00) 18 10.83 (20:50) 8.33 (19:30) 0 0 0 0 0
18-01-2020 20.2 (14:50) 14.9 (00:00) 17.6 8.89 (21:10) 6.94 (21:10) 0 0 0 0 0
17-01-2020 20.6 (13:20) 12.9 (00:00) 16.8 7.78 (07:10) 6.11 (07:40) 0 0 0 0 0
16-01-2020 19.9 (13:20) 10.7 (00:00) 15.3 6.11 (08:00) 4.72 (00:50) 0 0 0 0 0
15-01-2020 19.4 (15:40) 10.5 (00:00) 14.9 7.22 (07:10) 5 (13:10) 0 0 0 0 0
14-01-2020 20.4 (16:00) 12.5 (00:00) 16.4 10.83 (10:50) 8.33 (14:40) 0 0 0 0 0
13-01-2020 21.5 (15:10) 15.3 (00:00) 18.4 12.78 (10:50) 9.72 (11:00) 0 0 0 0 0
12-01-2020 20.2 (14:00) 16.4 (00:00) 18.3 11.39 (01:10) 8.61 (04:50) 0 0 0 0 0
11-01-2020 20.1 (14:30) 16.7 (00:00) 18.4 12.5 (16:00) 9.72 (10:20) 0 0 0 0 0
10-01-2020 20.8 (14:40) 17.3 (00:00) 19 16.94 (06:40) 12.5 (07:40) 0 0 0 0 0
09-01-2020 21.3 (14:00) 14.9 (00:00) 18.1 13.33 (19:40) 10.83 (19:50) 0 0 0 0 0
08-01-2020 20.9 (14:00) 16.3 (00:00) 18.6 11.39 (00:10) 8.89 (00:10) 0 0 0 0 0
07-01-2020 20.8 (13:30) 15.8 (00:00) 18.3 11.67 (00:10) 8.89 (05:50) 0 0 0 0 0
06-01-2020 20.9 (12:00) 16.1 (00:00) 18.5 12.5 (23:59) 8.89 (23:59) 1.5 0 0.6 0.9 0
05-01-2020 20.8 (13:50) 15.3 (00:00) 18 8.33 (08:10) 6.94 (10:10) 0 0 0 0 0
04-01-2020 20.5 (13:20) 16.6 (00:00) 18.6 11.39 (00:30) 8.89 (00:10) 0 0 0 0 0
03-01-2020 19.7 (12:00) 16.8 (00:00) 18.3 12.5 (01:00) 9.72 (01:10) 0 0 0 0 0
02-01-2020 19.2 (00:30) 16.8 (00:00) 18 13.89 (10:40) 10.28 (10:40) 0 0 0 0 0
01-01-2020 19.3 (14:50) 17.1 (00:00) 18.2 12.78 (08:30) 10.56 (08:30) 0 0 0 0 0
31-12-2019 20.2 (14:00) 15.3 (00:00) 17.8 6.67 (02:10) 5 (02:10) 0 0 0 0 0
30-12-2019 21.6 (12:20) 14.7 (00:00) 18.2 8.33 (08:40) 5 (18:10) 0 0 0 0 0
29-12-2019 21.9 (13:00) 14.8 (00:00) 18.3 7.78 (09:30) 5.56 (09:30) 0 0 0 0 0
28-12-2019 22.2 (13:50) 14.7 (00:00) 18.5 8.89 (07:10) 4.17 (04:10) 0 0 0 0 0
27-12-2019 22.1 (12:00) 15.7 (00:00) 18.9 6.11 (01:30) 5.28 (03:10) 0 0 0 0 0
26-12-2019 21.8 (12:30) 15.9 (00:00) 18.8 9.72 (05:50) 7.5 (05:30) 0 0 0 0 0

Gráficas

Temp. máximas Temp. mínimas Temp. medias Precipitaciones Rachas de viento máximas Velocidades máximas media en intervalos de 10 minutos

Datos horarios

Fecha y hora oficial Temperatura (ºC) Velocidad del viento (km/h) Dirección del viento Racha (km/h) Dirección de racha Precipitación (mm) Presión (hPa) Tendencia (hPa) Humedad (%)
2020-01-24 23:00:00 15.6 12 Oeste 22 Noroeste 0 1018.6 1 81
2020-01-24 22:00:00 16 12 Noroeste 17 Oeste 0 1018.4 1.3 79
2020-01-24 21:00:00 17.5 3 Oeste 26 Noroeste 0 1018.2 2.1 76
2020-01-24 20:00:00 17.9 17 Noroeste 28 Noroeste 0 1017.6 1.8 68
2020-01-24 19:00:00 18.4 14 Oeste 32 Noroeste 0 1017.1 -- 68
2020-01-24 18:00:00 19.6 22 Oeste 30 Noroeste 0 1016.1 0.3 59
2020-01-24 17:00:00 20.4 19 Noroeste 28 Noroeste 0 1015.8 -0.4 55
2020-01-24 16:00:00 19.7 13 Sudeste 26 Sur 0 -- -- 65
2020-01-24 15:00:00 19.2 20 Sudeste 28 Sudeste 0 1015.8 -2.1 66
2020-01-24 14:00:00 19.5 20 Sur 26 Sudeste 0 1016.2 -2.2 64
2020-01-24 13:00:00 19 17 Sudeste 26 Sudeste 0 1017.4 -0.6 67
2020-01-24 12:00:00 19.6 21 Sudeste 26 Sudeste 0 1017.9 0.3 68
2020-01-24 11:00:00 18.9 17 Sudeste 24 Sudeste 0 1018.4 1.3 70
2020-01-24 10:00:00 17.2 10 Sur 15 Sur 0 1018 1.4 67
2020-01-24 09:00:00 13.3 9 Sudoeste 18 Noroeste 0 1017.6 1.2 80
2020-01-24 08:00:00 11.6 7 Oeste 18 Sudoeste 0 1017.1 0.9 81
2020-01-24 07:00:00 12.2 7 Sudoeste 11 Sudoeste 0 1016.6 0.1 78
2020-01-24 06:00:00 12.1 10 Sudoeste 17 Sudoeste 0 1016.4 -0.5 80
2020-01-24 05:00:00 12.9 0 Calma 8 Sur 0 1016.2 -0.8 79
2020-01-24 04:00:00 13.7 0 Calma 17 Sudoeste 0 1016.5 -0.5 77
2020-01-24 03:00:00 14 9 Sudoeste 24 Sur 0 1016.9 -0.5 78
2020-01-24 02:00:00 14.6 15 Oeste 24 Oeste 0 1017 -0.4 76
2020-01-24 01:00:00 14.8 16 Oeste 21 Oeste 0 1017 -0.3 72
2020-01-24 00:00:00 15 14 Oeste 21 Oeste 0 1017.4 0.2 73
2020-01-23 23:00:00 15.2 8 Oeste 13 Oeste 0 1017.4 0.7 73
2020-01-23 22:00:00 15 10 Oeste 26 Oeste 0 1017.3 1.3 72
2020-01-23 21:00:00 15.7 6 Sudoeste 15 Oeste 0 1017.2 1.8 70
2020-01-23 20:00:00 17 8 Noroeste 22 Noroeste 0 1016.7 1.4 64
2020-01-23 19:00:00 18.2 10 Oeste 26 Noroeste 0 1016 0.8 61
2020-01-23 18:00:00 19.5 17 Noroeste 30 Noroeste 0 1015.4 0.3 52
2020-01-23 17:00:00 20.6 16 Oeste 37 Oeste 0 1015.3 -0.1 45
2020-01-23 16:00:00 20.8 14 Oeste 28 Noroeste 0 1015.2 -1.2 48
2020-01-23 15:00:00 20.7 19 Oeste 37 Oeste 0 1015.1 -1.8 49
2020-01-23 14:00:00 20.1 11 Noroeste 39 Sudoeste 0 1015.4 -1.4 53
2020-01-23 13:00:00 17.9 13 Noroeste 48 Oeste 0 1016.4 -0.1 62
2020-01-23 12:00:00 19.1 17 Oeste 35 Oeste 0 1016.9 1.2 62
2020-01-23 11:00:00 17.9 12 Sudoeste 22 Oeste 0 1016.8 1.8 69
2020-01-23 10:00:00 17.3 8 Sur 13 Sudeste 0 1016.5 1.8 74
2020-01-23 09:00:00 15.9 4 Sur 13 Oeste 0 1015.7 1.4 79
2020-01-23 08:00:00 14.6 10 Sudoeste 13 Sudoeste 0 1015 0.6 81
2020-01-23 07:00:00 14.9 12 Sur 17 Sur 0 1014.7 0.3 80
2020-01-23 06:00:00 14.9 13 Sudoeste 18 Sudoeste 0 1014.3 -0.6 79
2020-01-23 05:00:00 14.7 14 Sur 18 Sudoeste 0 1014.4 -0.8 81
2020-01-23 04:00:00 14.3 12 Sur 17 Sudoeste 0 1014.4 -1.1 80
2020-01-23 03:00:00 15.1 14 Sudoeste 18 Sudoeste 0 1014.9 -1 77
2020-01-23 02:00:00 15.1 13 Sudoeste 18 Sudoeste 0 1015.2 -0.5 79
2020-01-23 01:00:00 15.1 9 Oeste 15 Oeste 0 1015.5 0 80
2020-01-23 00:00:00 15.4 13 Oeste 30 Oeste 0.1 1015.9 0.7 77
2020-01-22 23:00:00 15.8 10 Sudoeste 15 Sur 0 1015.7 1.1 65
2020-01-22 22:00:00 16.7 6 Sur 15 Sudoeste 0 1015.5 1.8 63
2020-01-22 21:00:00 16.7 10 Sudoeste 21 Sudoeste 0 1015.2 1.9 64
2020-01-22 20:00:00 16.7 10 Oeste 28 Oeste 0 1014.6 1.3 64
2020-01-22 19:00:00 17.4 17 Noroeste 28 Oeste 0 1013.7 0.4 58
2020-01-22 18:00:00 18.5 17 Oeste 30 Noroeste 0 1013.3 -0.4 54
2020-01-22 17:00:00 18.8 12 Nordeste 39 Nordeste 0 1013.3 -0.7 55
2020-01-22 16:00:00 18.2 21 Sudeste 30 Sur 0 1013.3 -1.3 68
2020-01-22 15:00:00 18.3 17 Sudeste 30 Sudeste 0 1013.7 -1.4 67
2020-01-22 14:00:00 18.1 20 Sudeste 26 Sudeste 0 1014 -1.7 63
2020-01-22 13:00:00 18.4 12 Sudeste 18 Este 0 1014.6 -0.8 60
2020-01-22 12:00:00 19.3 12 Este 22 Oeste 0 1015.1 0.2 56
2020-01-22 11:00:00 18.4 10 Oeste 28 Oeste 0 1015.7 1 57
2020-01-22 10:00:00 16.7 6 Sudoeste 22 Oeste 0 1015.4 1.5 64
2020-01-22 09:00:00 13.9 2 Oeste 26 Oeste 0 1014.9 1.3 73
2020-01-22 08:00:00 12 5 Oeste 21 Oeste 0 1014.7 1.4 77
2020-01-22 07:00:00 11.3 14 Oeste 18 Noroeste 0 1013.9 0.3 77
2020-01-22 06:00:00 11.1 10 Oeste 13 Sudoeste 0 1013.6 -0.1 77
2020-01-22 05:00:00 10.7 11 Oeste 15 Sudoeste 0 1013.3 -0.4 77
2020-01-22 04:00:00 -- 9 Oeste 13 Oeste 0 1013.6 -0.2 --
2020-01-22 03:00:00 11.8 11 Oeste 13 Oeste 0 1013.7 -0.2 75
2020-01-22 02:00:00 12.1 9 Oeste 13 Oeste 0 1013.7 -0.2 73
2020-01-22 01:00:00 11.8 10 Oeste 13 Oeste 0 1013.8 0.2 71
2020-01-22 00:00:00 12.9 8 Noroeste 13 Noroeste 0 1013.9 0.6 68
2020-01-21 23:00:00 14.1 11 Noroeste 17 Noroeste 0 1013.9 1 66
2020-01-21 22:00:00 14.9 12 Noroeste 28 Oeste 0 1013.6 1.5 65
2020-01-21 21:00:00 15.2 12 Noroeste 21 Noroeste 0 1013.3 1.8 65
2020-01-21 20:00:00 15.9 12 Noroeste 28 Oeste 0 1012.9 1.5 62
2020-01-21 19:00:00 16.7 12 Noroeste 26 Noroeste 0 1012.1 1.1 59
2020-01-21 18:00:00 17.9 15 Noroeste 37 Oeste 0 1011.5 0.6 50
2020-01-21 17:00:00 18.1 16 Noroeste 30 Noroeste 0 1011.4 0.3 51
2020-01-21 16:00:00 18.5 22 Noroeste 45 Norte 0 1011 -0.8 46
2020-01-21 15:00:00 18.8 22 Norte 37 Norte 0 1010.9 -1.8 46
2020-01-21 14:00:00 18.7 19 Norte -- -- -- 1011.1 -1.6 44
2020-01-21 13:00:00 17.8 21 Norte 33 Nordeste 0 1011.8 -0.6 54
2020-01-21 12:00:00 16.4 29 Nordeste 35 Nordeste 0 1012.7 0.5 67
2020-01-21 11:00:00 16.3 17 Nordeste 26 Nordeste 0 1012.7 1.3 67
2020-01-21 10:00:00 15.2 15 Norte 24 Norte 0 1012.4 1.3 66
2020-01-21 09:00:00 14.3 22 Norte 35 Norte 0 1012.2 1.3 76
2020-01-21 08:00:00 14.8 3 Oeste 11 Noroeste 0 1011.4 0.7 68
2020-01-21 07:00:00 15.1 6 Norte 15 Norte 0 1011.1 0.2 69
2020-01-21 06:00:00 15.4 13 Norte 17 Norte 0 1010.9 -0.4 63
2020-01-21 05:00:00 15.6 14 Norte 21 Norte 0 1010.7 -0.9 55
2020-01-21 04:00:00 16.1 15 Noroeste 22 Noroeste 0 1010.9 -1.1 54
2020-01-21 03:00:00 16.1 13 Noroeste 26 Norte 0 1011.3 -1 54
2020-01-21 02:00:00 16.2 15 Norte 35 Norte 0 1011.6 -1 50
2020-01-21 01:00:00 16.3 17 Norte 30 Norte 0 1012 -0.6 50
2020-01-21 00:00:00 16.2 24 Noroeste 39 Norte 0 1012.3 -0.3 56
2020-01-20 23:00:00 16.3 19 Norte 33 Norte 0 1012.6 0.5 56
2020-01-20 22:00:00 16.3 28 Norte 41 Norte 0 1012.6 0.9 55
2020-01-20 21:00:00 16.6 23 Norte 46 Norte 0 1012.6 1.1 57
2020-01-20 20:00:00 17 35 Norte 46 Norte 0 1012.1 0.4 58
2020-01-20 19:00:00 17.3 25 Norte 42 Norte 0 1011.7 0.3 57
2020-01-20 18:00:00 17.7 22 Norte 42 Norte 0 1011.5 0.1 48
2020-01-20 17:00:00 17.8 34 Norte 50 Norte 0 1011.7 0 44
2020-01-20 16:00:00 18.8 32 Norte 50 Norte 0 1011.4 -1.5 43
2020-01-20 15:00:00 19.2 33 Norte 50 Norte 0 1011.4 -2.4 46
2020-01-20 14:00:00 19.8 41 Norte 50 Norte 0 1011.7 -2.9 48
2020-01-20 13:00:00 19.2 35 Norte 55 Norte 0 1012.9 -1.8 51
2020-01-20 12:00:00 18.5 23 Noroeste 46 Norte 0 1013.8 -0.6 57
2020-01-20 11:00:00 18.5 30 Norte 46 Norte 0 1014.6 0.3 57
2020-01-20 10:00:00 17.8 22 Noroeste 32 Noroeste 0 1014.7 0.9 63
2020-01-20 09:00:00 17.3 22 Norte 32 Norte 0 1014.4 0.7 64
2020-01-20 08:00:00 16.3 17 Noroeste 45 Norte 0 1014.3 0.3 74
2020-01-20 07:00:00 16.4 22 Norte 50 Norte 0 1013.8 -1 72
2020-01-20 06:00:00 16.8 27 Norte 48 Norte 0 1013.7 -1.5 64
2020-01-20 05:00:00 16.9 37 Norte 46 Norte 0 1014 -1.9 61
2020-01-20 04:00:00 16.9 37 Norte 50 Norte 0 1014.8 -2.1 62
2020-01-20 03:00:00 17 24 Norte 45 Norte 0 1015.2 -2.6 61
2020-01-20 02:00:00 16.8 30 Norte 41 Norte 0 1015.9 -2.6 63
2020-01-20 01:00:00 17.1 28 Norte 42 Norte 0 1016.9 -2 65
2020-01-20 00:00:00 18.1 29 Norte 37 Norte 0 1017.8 -1.1 73
2020-01-19 23:00:00 18.5 17 Norte 32 Norte 0 1018.5 -0.4 73
2020-01-19 22:00:00 18.1 20 Norte 33 Norte 0 1018.9 -0.1 84
2020-01-19 21:00:00 18.7 24 Norte 39 Norte 0 1018.9 -0.5 77
2020-01-19 20:00:00 18.6 24 Nordeste 37 Nordeste 0 1018.9 -0.7 84
2020-01-19 19:00:00 18.9 24 Nordeste 35 Nordeste 0 1019 -0.9 82
2020-01-19 18:00:00 19 28 Nordeste 37 Nordeste 0 1019.4 -1.2 77
2020-01-19 17:00:00 19.9 24 Nordeste 32 Nordeste 0 1019.6 -1.6 73
2020-01-19 16:00:00 20.2 23 Nordeste 32 Nordeste 0 1019.9 -2.2 71
2020-01-19 15:00:00 20.6 25 Nordeste 32 Nordeste 0 1020.6 -2.8 70
2020-01-19 14:00:00 20.3 23 Nordeste 28 Nordeste 0 1021.2 -2.7 73
2020-01-19 13:00:00 20 15 Nordeste 24 Nordeste 0 1022.1 -2 73
2020-01-19 12:00:00 19.8 17 Nordeste 22 Nordeste 0 1023.4 -0.7 74
2020-01-19 11:00:00 19.5 13 Nordeste 22 Nordeste 0 1023.9 0.2 75
2020-01-19 10:00:00 18.6 17 Nordeste 26 Norte 0 1024.1 0.9 78
2020-01-19 09:00:00 17.8 19 Nordeste 30 Nordeste 0 1024.1 1.2 83
2020-01-19 08:00:00 16.9 21 Nordeste 30 Nordeste 0 1023.7 0.6 86
2020-01-19 07:00:00 16.8 23 Norte 30 Norte 0 1023.2 -0.4 87
2020-01-19 06:00:00 16.8 23 Nordeste 28 Nordeste 0 1022.9 -1.1 86
2020-01-19 05:00:00 16.9 21 Nordeste 26 Nordeste 0 1023.1 -1.3 88
2020-01-19 04:00:00 16.6 18 Norte 26 Norte 0 1023.6 -1.3 88
2020-01-19 03:00:00 15.6 19 Norte 22 Norte 0 1024 -1.4 92
2020-01-19 02:00:00 15.1 16 Norte 21 Norte 0 1024.4 -1 88
2020-01-19 01:00:00 15.6 13 Norte 18 Norte 0 1024.9 -0.4 85
2020-01-19 00:00:00 16.1 14 Noroeste 18 Norte 0 1025.4 0.2 86
2020-01-18 23:00:00 16.5 15 Norte 26 Norte 0 1025.4 0.3 88
2020-01-18 22:00:00 16.9 16 Norte 32 Norte 0 1025.3 0.5 85
2020-01-18 21:00:00 17.6 23 Norte 30 Norte 0 1025.2 0.4 81
2020-01-18 20:00:00 17.9 23 Nordeste 30 Nordeste 0 1025.1 0.2 81
2020-01-18 19:00:00 18.1 19 Nordeste 24 Nordeste 0 1024.8 -0.4 80
2020-01-18 18:00:00 19 19 Norte 24 Norte 0 1024.8 -0.7 73
2020-01-18 17:00:00 19.6 17 Nordeste 22 Nordeste 0 1024.9 -0.9 71
2020-01-18 16:00:00 19.8 13 Nordeste 18 Nordeste 0 1025.2 -1.7 71
2020-01-18 15:00:00 20 12 Nordeste 18 Nordeste 0 1025.5 -2.5 70
2020-01-18 14:00:00 19.9 13 Nordeste 18 Nordeste 0 1025.8 -2.7 71
2020-01-18 13:00:00 19.7 13 Nordeste 18 Nordeste 0 1026.9 -1.3 73
2020-01-18 12:00:00 19.7 13 Nordeste 18 Nordeste 0 1028 0.3 76
2020-01-18 11:00:00 19.3 13 Nordeste 21 Nordeste 0 1028.5 1.3 79
2020-01-18 10:00:00 18.6 14 Nordeste 21 Nordeste 0 1028.2 1.6 82
2020-01-18 09:00:00 17.6 16 Nordeste 22 Nordeste 0 1027.7 1.6 87
2020-01-18 08:00:00 16.7 18 Nordeste 26 Nordeste 0 1027.2 1.3 88
2020-01-18 07:00:00 16.7 19 Nordeste 24 Nordeste 0 1026.6 0.3 87
2020-01-18 06:00:00 16.8 18 Nordeste 24 Nordeste 0 1026.1 -0.4 87
2020-01-18 05:00:00 16.7 17 Nordeste 22 Nordeste 0 1025.9 -0.7 85
2020-01-18 04:00:00 16.8 17 Nordeste 22 Nordeste 0 1026.3 -0.5 85
2020-01-18 03:00:00 16.6 16 Nordeste 21 Nordeste 0 1026.5 -0.4 85
2020-01-18 02:00:00 15.3 13 Norte 21 Norte 0 1026.6 -0.2 87
2020-01-18 01:00:00 15.2 13 Norte 17 Noroeste 0 1026.8 0.5 85
2020-01-18 00:00:00 15.3 13 Noroeste 17 Norte 0 1026.9 0.9 84
2020-01-17 23:00:00 15.5 14 Norte 21 Norte 0 1026.8 1.1 81
2020-01-17 22:00:00 16.1 16 Norte 22 Norte 0 1026.3 1 78
2020-01-17 21:00:00 16.5 16 Norte 22 Norte 0 1026 1.2 76
2020-01-17 20:00:00 17.2 17 Norte 22 Nordeste 0 1025.7 0.9 74
2020-01-17 19:00:00 17.8 15 Nordeste 22 Nordeste 0 1025.3 0.4 71
2020-01-17 18:00:00 18.7 16 Nordeste 24 Nordeste 0 1024.8 -0.4 66
2020-01-17 17:00:00 19.4 17 Nordeste 22 Nordeste 0 1024.8 -1.1 62
2020-01-17 16:00:00 20 16 Nordeste 22 Nordeste 0 1024.9 -1.8 58
2020-01-17 15:00:00 20.1 15 Nordeste 24 Este 0 1025.2 -2.3 57
2020-01-17 14:00:00 20.1 16 Este 26 Nordeste 0 1025.9 -2 56
2020-01-17 13:00:00 20.4 18 Este 28 Este 0 1026.7 -0.8 56
2020-01-17 12:00:00 20.1 21 Este 28 Este 0 1027.5 0.4 57
2020-01-17 11:00:00 19.6 20 Este 28 Este 0 1027.9 1.3 60
2020-01-17 10:00:00 19 19 Nordeste 28 Nordeste 0 1027.5 1.7 63
2020-01-17 09:00:00 17.9 19 Nordeste 28 Nordeste 0 1027.1 2 65
2020-01-17 08:00:00 16.6 20 Nordeste 28 Nordeste 0 1026.6 1.6 69
2020-01-17 07:00:00 16.6 21 Nordeste 26 Nordeste 0 1025.8 0.6 72
2020-01-17 06:00:00 16.4 21 Nordeste 26 Nordeste 0 1025.1 -0.3 71
2020-01-17 05:00:00 16.1 18 Nordeste 24 Nordeste 0 1025 -0.2 70
2020-01-17 04:00:00 13.5 13 Norte -- -- 0 1025.2 -0.1 72
2020-01-17 03:00:00 12.9 13 Noroeste -- -- 0 1025.4 0.1 69
2020-01-17 02:00:00 13.2 12 Noroeste 13 Noroeste 0 1025.2 -0.2 66
2020-01-17 01:00:00 13.5 12 Noroeste 15 Noroeste 0 1025.3 0.1 63
2020-01-17 00:00:00 14.2 13 Noroeste 15 Noroeste 0 1025.3 0.3 63
2020-01-16 23:00:00 14.7 12 Noroeste -- -- 0 1025.4 0.9 62
2020-01-16 22:00:00 15.2 12 Noroeste 18 Noroeste 0 1025.2 1.1 59
2020-01-16 21:00:00 15.8 12 Norte 17 Norte 0 1025 1.3 60
2020-01-16 20:00:00 16.3 10 Norte 15 Norte 0 1024.5 0.9 59
2020-01-16 19:00:00 17.3 12 Nordeste 15 Nordeste 0 1024.1 0.7 59
2020-01-16 18:00:00 18.5 9 Nordeste 13 Nordeste 0 1023.7 0.5 50
2020-01-16 17:00:00 19 9 Nordeste 15 Este 0 1023.6 -0.1 48
2020-01-16 16:00:00 19.5 9 Este 15 Sudeste 0 1023.4 -1 44
2020-01-16 15:00:00 19.5 12 Este 21 Este 0 1023.2 -1.6 45
2020-01-16 14:00:00 19.5 13 Este 18 Este 0 1023.7 -1.3 48
2020-01-16 13:00:00 19.7 11 Este 18 Sudeste 0 1024.4 -0.1 52
2020-01-16 12:00:00 19.3 13 Sudeste 21 Sudeste 0 1024.8 1 49
2020-01-16 11:00:00 18.7 9 Sudeste 15 Sudeste 0 1025 1.9 53
2020-01-16 10:00:00 17.5 5 Sudoeste 17 Oeste 0 1024.5 1.9 55
2020-01-16 09:00:00 13.3 9 Oeste 22 Oeste 0 1023.8 1.9 68
2020-01-16 08:00:00 10.8 9 Oeste 22 Oeste 0 1023.1 1.9 73
2020-01-16 07:00:00 10.7 8 Oeste 11 Oeste 0 1022.6 1.5 77
2020-01-16 06:00:00 11.9 13 Oeste 18 Noroeste 0 1021.9 0.6 77
2020-01-16 05:00:00 11.3 9 Oeste 13 Noroeste 0 1021.2 -0.3 78
2020-01-16 04:00:00 11.8 11 Oeste 13 Oeste 0 1021.1 -0.3 77
2020-01-16 03:00:00 12.8 12 Noroeste 15 Noroeste 0 1021.3 -0.3 76
2020-01-16 02:00:00 13 13 Noroeste 18 Noroeste 0 1021.5 -0.4 76
2020-01-16 01:00:00 13.5 15 Noroeste 18 Noroeste 0 1021.4 -0.2 74
2020-01-16 00:00:00 14 -- -- -- -- 0 1021.6 0.4 71
2020-01-15 23:00:00 14 13 Noroeste 15 Noroeste 0 1021.9 1.2 67
2020-01-15 22:00:00 14.3 12 Noroeste 21 Oeste 0 1021.6 1.2 63
2020-01-15 21:00:00 15.4 11 Noroeste 13 Noroeste 0 1021.2 1.2 57
2020-01-15 20:00:00 16.6 7 Norte 15 Norte 0 1020.7 0.6 55
2020-01-15 19:00:00 17.3 12 Norte 17 Norte 0 1020.4 0.9 53
2020-01-15 18:00:00 18.4 10 Nordeste 15 Norte 0 1020 0.6 49
2020-01-15 17:00:00 19.1 6 Nordeste 13 Este 0 1020.1 0.4 46
2020-01-15 16:00:00 19.1 8 Nordeste 13 Este 0 1019.5 -1.1 47
2020-01-15 15:00:00 19.2 9 Sudeste 21 Sudeste 0 1019.4 -2.5 47
2020-01-15 14:00:00 19.1 13 Sudeste 22 Sudeste 0 1019.7 -2.6 45
2020-01-15 13:00:00 19.1 15 Sudeste 21 Sudeste 0 1020.6 -1.1 46
2020-01-15 12:00:00 19 13 Sudeste 22 Sudeste 0 1021.9 0.7 46
2020-01-15 11:00:00 18.3 8 Sur 11 Sur 0 1022.3 1.7 54
2020-01-15 10:00:00 16.6 2 Sudoeste 26 Oeste 0 1021.7 1.9 67
2020-01-15 09:00:00 12.2 8 Oeste 22 Oeste 0 1021.2 2.4 75
2020-01-15 08:00:00 11 11 Oeste 26 Oeste 0 1020.6 1.6 78
2020-01-15 07:00:00 11 15 Oeste 21 Noroeste 0 1019.8 0.8 79
2020-01-15 06:00:00 12.4 13 Oeste 21 Noroeste 0 1018.8 -0.5 80
2020-01-15 05:00:00 12.4 13 Oeste 18 Noroeste 0 1019 -0.5 78
2020-01-15 04:00:00 12.4 10 Noroeste 13 Noroeste 0 1019 -0.5 75
2020-01-15 03:00:00 12.5 12 Noroeste 15 Oeste 0 1019.3 -0.5 73
2020-01-15 02:00:00 13 14 Oeste 18 Noroeste 0 1019.5 0 68
2020-01-15 01:00:00 13 14 Oeste 17 Noroeste 0 1019.5 0.3 60
2020-01-15 00:00:00 12.8 9 Noroeste 13 Noroeste 0 1019.8 0.9 54
2020-01-14 23:00:00 12.9 9 Noroeste 11 Noroeste 0 1019.5 0.6 39
2020-01-14 22:00:00 14 9 Noroeste 21 Oeste 0 1019.2 0.5 36
2020-01-14 21:00:00 14.6 9 Oeste 11 Oeste 0 1018.9 0.2 36
2020-01-14 20:00:00 16.1 0 Calma 17 Oeste 0 1018.9 0.4 34
2020-01-14 19:00:00 17.4 7 Sudoeste 15 Sur 0 1018.7 0.3 44
2020-01-14 18:00:00 19.3 13 Sur 22 Sur 0 1018.7 0.3 37
2020-01-14 17:00:00 20.1 19 Sur 33 Sur 0 1018.5 -0.1 35
2020-01-14 16:00:00 20.3 27 Sur 37 Sur 0 1018.4 -0.9 36
2020-01-14 15:00:00 20 27 Sur 39 Sur 0 1018.4 -1.7 42
2020-01-14 14:00:00 19.3 27 Sur 37 Sur 0 1018.6 -2.2 49
2020-01-14 13:00:00 19.5 27 Sur 37 Sur 0 1019.3 -1.3 47
2020-01-14 12:00:00 19 26 Sur 33 Sur 0 1020.1 0.3 45
2020-01-14 11:00:00 18.8 26 Sudeste 39 Sur 0 1020.8 1.5 47
2020-01-14 10:00:00 18.1 21 Sur 32 Sur 0 1020.6 1.9 54
2020-01-14 09:00:00 17.5 27 Sur 35 Sudeste 0 1019.8 1.6 58
2020-01-14 08:00:00 13.8 13 Sudoeste 17 Sudoeste 0 1019.3 1.2 66
2020-01-14 07:00:00 14.3 13 Sudoeste 22 Sur 0 1018.7 0.4 61
2020-01-14 06:00:00 13.6 9 Sudoeste 21 Sur 0 1018.2 -0.4 64
2020-01-14 05:00:00 14.7 10 Sur 17 Sudoeste 0 1018.1 -0.6 61
2020-01-14 04:00:00 13.9 10 Oeste 13 Oeste 0 1018.3 -0.7 68
2020-01-14 03:00:00 16.6 8 Sudeste 13 Sudeste 0 1018.6 -1.1 65
2020-01-14 02:00:00 15.4 2 Sur 17 Este 0 1018.7 -1.7 68
2020-01-14 01:00:00 15.3 6 Norte 13 Norte 0 1019 -1.5 72
2020-01-14 00:00:00 15.3 10 Noroeste 17 Noroeste 0 1019.7 -0.5 75
2020-01-13 23:00:00 15.9 13 Noroeste 15 Noroeste 0 1020.4 0.6 73
2020-01-13 22:00:00 16.4 13 Noroeste 15 Noroeste 0 1020.5 0.9 71
2020-01-13 21:00:00 17.6 12 Nordeste 21 Nordeste 0 1020.2 0.8 72
2020-01-13 20:00:00 18 15 Nordeste 22 Nordeste 0 1019.8 0.7 70
2020-01-13 19:00:00 18.4 16 Nordeste 22 Nordeste 0 1019.6 0.3 67
2020-01-13 18:00:00 19.3 14 Nordeste 22 Nordeste 0 1019.4 -0.3 56
2020-01-13 17:00:00 20 9 Este 21 Sur 0 1019.1 -1.1 48
2020-01-13 16:00:00 21.3 15 Sur 28 Sur 0 1019.3 -1.8 36
2020-01-13 15:00:00 21.3 17 Sur 30 Sudeste 0 1019.7 -2.3 39
2020-01-13 14:00:00 20.1 19 Sur 30 Sudeste 0 1020.2 -2.6 42
2020-01-13 13:00:00 19.5 25 Sudeste 39 Sudeste 0 1021.1 -1.6 48
2020-01-13 12:00:00 19.4 31 Sudeste 42 Sudeste 0 1022 0 48
2020-01-13 11:00:00 18.7 35 Sur 46 Sur 0 1022.8 1.6 45
2020-01-13 10:00:00 18.2 31 Sudeste 42 Sudeste 0 1022.7 2.2 51
2020-01-13 09:00:00 17.7 28 Sudeste 42 Sudeste 0 1022 2.3 54
2020-01-13 08:00:00 17.5 28 Sudeste 41 Este 0 1021.2 1.3 51
2020-01-13 07:00:00 17.7 28 Sudeste 41 Este 0 1020.5 0.2 56
2020-01-13 06:00:00 17.6 26 Este 39 Este 0 1019.7 -0.4 63
2020-01-13 05:00:00 17.6 24 Este 33 Este 0 1019.9 -0.5 74
2020-01-13 04:00:00 17.7 27 Este 41 Este 0 1020.3 -0.7 71
2020-01-13 03:00:00 17.8 32 Este 42 Este 0 1020.1 -1.2 74
2020-01-13 02:00:00 17.7 29 Este 42 Este 0 1020.4 -1.2 75
2020-01-13 01:00:00 17.8 24 Nordeste 35 Nordeste 0 1021 -1 75
2020-01-13 00:00:00 17.8 26 Nordeste 35 Nordeste 0 1021.3 -1.3 72
2020-01-12 23:00:00 17.7 28 Nordeste 35 Nordeste 0 1021.6 -0.5 70
2020-01-12 22:00:00 17.4 24 Nordeste 32 Nordeste 0 1022 0.4 69
2020-01-12 21:00:00 16.5 13 Norte 22 Norte 0 1022.6 2.1 65
2020-01-12 20:00:00 17.1 14 Norte 28 Norte 0 1022.1 2.1 62
2020-01-12 19:00:00 17.8 19 Nordeste 28 Norte 0 1021.6 1.4 63
2020-01-12 18:00:00 18.4 23 Nordeste 32 Nordeste 0 1020.5 0 54
2020-01-12 17:00:00 19.3 25 Nordeste 32 Nordeste 0 1020 -1.3 49
2020-01-12 16:00:00 19.7 20 Este 33 Este 0 1020.2 -2.1 44
2020-01-12 15:00:00 20 22 Este 30 Este 0 1020.5 -2.7 49
2020-01-12 14:00:00 20.1 19 Este 30 Este 0 1021.3 -2.3 52
2020-01-12 13:00:00 19.9 17 Este 28 Este 0 1022.3 -1 56
2020-01-12 12:00:00 19.7 21 Nordeste 28 Nordeste 0 1023.2 0.9 58
2020-01-12 11:00:00 19.3 22 Nordeste 32 Nordeste 0 1023.6 2.2 61
2020-01-12 10:00:00 19 25 Nordeste 33 Nordeste 0 1023.3 2.2 64
2020-01-12 09:00:00 18.1 23 Nordeste 33 Nordeste 0 1022.3 1.8 65
2020-01-12 08:00:00 17.2 25 Nordeste 33 Nordeste 0 1021.4 0.8 66
2020-01-12 07:00:00 17.3 22 Nordeste 37 Nordeste 0 1021.1 -0.1 67
2020-01-12 06:00:00 17.7 29 Nordeste 37 Nordeste 0 1020.5 -0.9 62
2020-01-12 05:00:00 17.6 31 Nordeste 39 Nordeste 0 1020.6 -1 66
2020-01-12 04:00:00 17.6 19 Norte 30 Nordeste 0 1021.2 -0.3 65
2020-01-12 03:00:00 17.7 21 Nordeste 32 Nordeste 0 1021.4 -0.4 66
2020-01-12 02:00:00 17.7 24 Nordeste 41 Norte 0 1021.6 -0.1 64
2020-01-12 01:00:00 17.6 24 Norte 39 Norte 0 1021.5 0.1 63
2020-01-12 00:00:00 17.7 30 Nordeste 39 Nordeste 0 1021.8 0.5 63
2020-01-11 23:00:00 17.8 32 Nordeste 45 Nordeste 0 1021.7 0.5 64
2020-01-11 22:00:00 17.8 30 Norte 45 Norte 0 1021.4 0.4 62
2020-01-11 21:00:00 18 34 Norte 45 Norte 0 1021.3 0.6 65
2020-01-11 20:00:00 18.1 22 Norte 37 Norte 0 1021.2 0.7 59
2020-01-11 19:00:00 18.2 24 Norte 33 Norte 0 1021 0.7 61
2020-01-11 18:00:00 18.3 26 Norte 37 Norte 0 1020.7 0.1 65
2020-01-11 17:00:00 18.9 27 Norte 45 Norte 0 1020.5 -0.4 63
2020-01-11 16:00:00 19.3 31 Norte 45 Norte 0 1020.3 -1.6 62
2020-01-11 15:00:00 19.8 28 Norte 39 Norte 0 1020.6 -2.1 58
2020-01-11 14:00:00 19.9 25 Norte 37 Norte 0 1020.9 -2.3 56
2020-01-11 13:00:00 19.3 24 Nordeste 35 Norte 0 1021.9 -1.2 67
2020-01-11 12:00:00 19.6 24 Nordeste 37 Norte 0 1022.7 0.2 63
2020-01-11 11:00:00 19.3 22 Norte 42 Norte 0 1023.2 -- 57
2020-01-11 10:00:00 18.6 29 Nordeste 41 Nordeste 0 1023.1 1.2 68
2020-01-11 09:00:00 17.8 23 Norte 30 Norte 0 1022.5 0.6 64
2020-01-11 08:00:00 17.3 24 Norte 39 Norte 0 -- -- 70
2020-01-11 07:00:00 17 23 Norte 30 Norte 0 1021.9 -0.5 64
2020-01-11 06:00:00 17 24 Norte 33 Norte 0 1021.9 -0.8 64
2020-01-11 05:00:00 17.3 25 Norte 41 Nordeste 0 1022.2 -0.6 63
2020-01-11 04:00:00 17.5 23 Norte 39 Nordeste 0 1022.4 -1 63
2020-01-11 03:00:00 17.1 23 Norte 32 Norte 0 1022.7 -0.9 69
2020-01-11 02:00:00 17.4 21 Norte 30 Norte 0 1022.8 -1 71
2020-01-11 01:00:00 17.9 25 Norte 35 Norte 0 1023.4 -0.4 73
2020-01-11 00:00:00 18.3 27 Norte 45 Norte 0 1023.6 -0.1 76
2020-01-10 23:00:00 18.4 32 Norte 42 Norte 0 1023.8 0.6 78
2020-01-10 22:00:00 18.2 23 Norte 30 Norte 0 1023.8 1 76
2020-01-10 21:00:00 17.5 16 Norte 28 Norte 0 1023.7 1.1 73
2020-01-10 20:00:00 18 18 Norte 32 Nordeste 0 1023.2 0.6 72
2020-01-10 19:00:00 18.6 23 Nordeste 37 Nordeste 0 1022.8 0.3 78
2020-01-10 18:00:00 19.4 27 Nordeste 35 Nordeste 0 1022.6 0.2 74
2020-01-10 17:00:00 19.7 28 Nordeste 42 Nordeste 0 1022.6 0 68
2020-01-10 16:00:00 20 33 Nordeste 45 Nordeste 0 1022.5 -0.8 68
2020-01-10 15:00:00 20.1 35 Nordeste 46 Nordeste 0 1022.4 -1.8 67
2020-01-10 14:00:00 19.7 33 Nordeste 46 Nordeste 0 1022.6 -2.2 71
2020-01-10 13:00:00 19.6 34 Nordeste 50 Nordeste 0 1023.3 -1.2 72
2020-01-10 12:00:00 19.6 37 Nordeste 50 Nordeste 0 1024.2 0.4 71
2020-01-10 11:00:00 19.5 34 Norte 50 Norte 0 1024.8 1.3 72
2020-01-10 10:00:00 18.9 27 Norte 46 Norte 0 1024.5 1.5 80
2020-01-10 09:00:00 18.3 24 Norte 39 Nordeste 0 1023.8 1.1 82
2020-01-10 08:00:00 17.6 28 Nordeste 59 Nordeste 0 1023.5 0.5 89
2020-01-10 07:00:00 18 37 Nordeste 61 Norte 0 1023 -0.5 85
2020-01-10 06:00:00 18 28 Norte 50 Norte 0 1022.7 -0.9 83
2020-01-10 05:00:00 18 32 Norte 50 Nordeste 0 1023 -0.9 83
2020-01-10 04:00:00 18.7 32 Nordeste 48 Norte 0 1023.5 -0.5 74
2020-01-10 03:00:00 18.2 25 Norte 39 Norte 0 1023.6 -1 75
2020-01-10 02:00:00 18.3 33 Norte 45 Norte 0 1023.9 -1 73
2020-01-10 01:00:00 18.5 32 Nordeste 45 Norte 0 1024 -1.1 74
2020-01-10 00:00:00 17.5 19 Norte 35 Nordeste 0 1024.6 -0.2 71
2020-01-09 23:00:00 17.6 22 Norte 32 Norte 0 1024.9 0.3 68
2020-01-09 22:00:00 17.6 23 Norte 45 Norte 0 1025.1 1 66
2020-01-09 21:00:00 17.9 34 Norte 45 Norte 0 1024.8 1.3 66
2020-01-09 20:00:00 18.1 35 Norte 48 Nordeste 0 1024.6 1.3 64
2020-01-09 19:00:00 18.3 31 Norte 42 Norte 0 1024.1 0.9 64
2020-01-09 18:00:00 18.7 31 Nordeste 41 Nordeste 0 1023.5 0.3 68
2020-01-09 17:00:00 19.4 32 Nordeste 41 Nordeste 0 1023.3 -0.1 66
2020-01-09 16:00:00 20.3 30 Nordeste 39 Nordeste 0 1023.2 -0.9 64
2020-01-09 15:00:00 20.8 28 Nordeste 37 Nordeste 0 1023.2 -1.8 59
2020-01-09 14:00:00 21.2 28 Nordeste 35 Nordeste 0 1023.4 -1.8 58
2020-01-09 13:00:00 20.7 23 Nordeste 32 Nordeste 0 1024.1 -0.6 61
2020-01-09 12:00:00 20.3 25 Norte 35 Nordeste 0 1025 0.8 59
2020-01-09 11:00:00 20 26 Nordeste 37 Nordeste 0 1025.2 1.6 59
2020-01-09 10:00:00 19 26 Norte 35 Norte 0 1024.7 1.3 60
2020-01-09 09:00:00 16.4 19 Norte 26 Norte 0 1024.2 1.1 68
2020-01-09 08:00:00 15.3 17 Noroeste 22 Norte 0 1023.6 0.6 74
2020-01-09 07:00:00 15.1 16 Norte 21 Norte 0 1023.4 0.1 74
2020-01-09 06:00:00 15.3 15 Norte 24 Norte 0 1023.1 -0.6 74
2020-01-09 05:00:00 15.1 17 Norte 22 Norte 0 1023 -0.9 75
2020-01-09 04:00:00 15.5 15 Norte 22 Norte 0 1023.3 -0.9 74
2020-01-09 03:00:00 15.8 17 Norte 30 Norte 0 1023.7 -1 73
2020-01-09 02:00:00 16.4 16 Norte 21 Norte 0 1023.9 -0.9 72
2020-01-09 01:00:00 15.9 14 Noroeste 30 Norte 0 1024.2 -0.4 73
2020-01-09 00:00:00 17 20 Norte 35 Norte 0 1024.7 0.3 73
2020-01-08 23:00:00 16.7 21 Norte 30 Norte 0 1024.8 0.9 73
2020-01-08 22:00:00 16.8 19 Norte 35 Norte 0 1024.6 1 71
2020-01-08 21:00:00 17.1 24 Norte 35 Nordeste 0 1024.4 1 67
2020-01-08 20:00:00 18.1 28 Nordeste 35 Nordeste 0 1023.9 0.7 70
2020-01-08 19:00:00 18.2 24 Nordeste 30 Nordeste 0 1023.6 0.6 67
2020-01-08 18:00:00 18.7 21 Nordeste 28 Nordeste 0 1023.4 0.5 68
2020-01-08 17:00:00 19.4 19 Nordeste 30 Nordeste 0 1023.2 -0.1 66
2020-01-08 16:00:00 20.1 23 Nordeste 30 Nordeste 0 1023 -1.1 62
2020-01-08 15:00:00 20.3 21 Nordeste 26 Nordeste 0 1022.9 -2 61
2020-01-08 14:00:00 20.6 18 Nordeste 26 Nordeste 0 1023.3 -2 60
2020-01-08 13:00:00 20.2 19 Nordeste 28 Nordeste 0 1024.1 -1 61
2020-01-08 12:00:00 20.2 19 Nordeste 28 Nordeste 0 1024.9 0.5 62
2020-01-08 11:00:00 20 22 Nordeste 30 Nordeste 0 1025.3 1.5 61
2020-01-08 10:00:00 19.3 22 Nordeste 32 Nordeste 0 1025.1 1.8 63
2020-01-08 09:00:00 18.1 17 Norte 26 Norte 0 1024.4 1.6 71
2020-01-08 08:00:00 16.4 14 Norte 26 Nordeste 0 1023.8 1 77
2020-01-08 07:00:00 16.5 13 Norte 30 Nordeste 0 1023.3 0.1 77
2020-01-08 06:00:00 17.1 21 Nordeste 28 Nordeste 0 1022.8 -0.6 73
2020-01-08 05:00:00 17.2 22 Nordeste 30 Nordeste 0 1022.8 -0.5 74
2020-01-08 04:00:00 17.4 24 Nordeste 32 Nordeste 0 1023.2 -0.1 75
2020-01-08 03:00:00 17.6 25 Nordeste 37 Nordeste 0 1023.4 0 73
2020-01-08 02:00:00 17.6 28 Nordeste 37 Nordeste 0 1023.3 -0.4 70
2020-01-08 01:00:00 17.7 31 Nordeste 41 Norte 0 1023.3 -0.4 71
2020-01-08 00:00:00 17.6 30 Norte 41 Norte 0 1023.4 0 76
2020-01-07 23:00:00 17.1 23 Norte 41 Norte 0 1023.7 0.5 75
2020-01-07 22:00:00 17.2 24 Norte 35 Norte 0 1023.7 0.8 76
2020-01-07 21:00:00 17.8 26 Norte 33 Nordeste 0 1023.4 0.8 76
2020-01-07 20:00:00 17.9 22 Nordeste 30 Nordeste 0 1023.2 0.8 75
2020-01-07 19:00:00 18 18 Nordeste 22 Nordeste 0 1022.9 0.6 63
2020-01-07 18:00:00 18.6 16 Nordeste 21 Nordeste 0 1022.6 0.1 67
2020-01-07 17:00:00 19.3 13 Nordeste 21 Nordeste 0 1022.4 -0.4 66
2020-01-07 16:00:00 19.7 14 Nordeste 24 Nordeste 0 1022.3 -0.9 63
2020-01-07 15:00:00 20.1 16 Nordeste 26 Nordeste 0 1022.5 -1.4 67
2020-01-07 14:00:00 20.4 19 Nordeste 28 Nordeste 0 1022.8 -1.6 67
2020-01-07 13:00:00 20.4 21 Nordeste 28 Nordeste 0 1023.2 -1 67
2020-01-07 12:00:00 20.1 20 Nordeste 26 Nordeste 0 1023.9 0.6 68
2020-01-07 11:00:00 19.6 21 Nordeste 32 Nordeste 0 1024.4 2 68
2020-01-07 10:00:00 19.1 22 Nordeste 30 Nordeste 0 1024.2 2.6 69
2020-01-07 09:00:00 18.1 24 Nordeste 35 Nordeste 0 1023.3 2.4 69
2020-01-07 08:00:00 17.2 24 Nordeste 35 Nordeste 0 1022.4 1.5 72
2020-01-07 07:00:00 17.1 29 Nordeste 41 Nordeste 0 1021.6 0.5 69
2020-01-07 06:00:00 17.2 32 Nordeste 41 Nordeste 0 1020.9 -0.2 71
2020-01-07 05:00:00 17.1 29 Nordeste 39 Nordeste 0 1020.9 -0.5 70
2020-01-07 04:00:00 17.1 27 Nordeste -- -- -- 1021.1 -0.3 72
2020-01-07 03:00:00 17 24 Nordeste 33 Nordeste 0 1021.1 -0.8 73
2020-01-07 02:00:00 16 18 Norte 28 Norte 0 1021.4 -0.7 73
2020-01-07 01:00:00 16.4 17 Norte 42 Nordeste 0 1021.4 -0.5 67
2020-01-07 00:00:00 16.8 32 Nordeste 45 Nordeste 0 1021.9 0.2 76
2020-01-06 23:00:00 16.5 18 Norte 30 Norte 0 1022.1 0.8 72
2020-01-06 22:00:00 16.8 17 Norte 30 Norte 0 1021.9 0.9 70
2020-01-06 21:00:00 16.6 18 Norte 35 Norte 0 1021.7 1.2 74
2020-01-06 20:00:00 17.1 27 Nordeste 35 Nordeste 0 1021.3 1 78
2020-01-06 19:00:00 16.9 24 Norte 32 Norte 0 1021 1 79
2020-01-06 18:00:00 16.6 11 Este 32 Norte 0.9 1020.5 0.5 84
2020-01-06 17:00:00 18.9 17 Nordeste 26 Nordeste 0 1020.3 -0.4 65
2020-01-06 16:00:00 19.3 18 Nordeste 28 Nordeste 0 1020 -1.5 60
2020-01-06 15:00:00 19.6 23 Nordeste 28 Nordeste 0 1020 -2.5 60
2020-01-06 14:00:00 20.1 17 Nordeste 24 Nordeste 0 1020.7 -2.7 63
2020-01-06 13:00:00 20.2 19 Nordeste 33 Nordeste 0 1021.5 -1.9 62
2020-01-06 12:00:00 20.6 26 Nordeste 33 Nordeste 0 1022.5 -0.3 53
2020-01-06 11:00:00 20 22 Norte 32 Norte 0 1023.4 0.7 56
2020-01-06 10:00:00 19.2 27 Norte 35 Norte 0 1023.4 0.8 63
2020-01-06 09:00:00 17.1 12 Norte 18 Noroeste 0 1022.8 0.7 78